createdAt,value
2023-04-20T01:13:52.796Z,2
2023-04-20T01:19:52.729Z,1
2023-04-20T01:20:52.718Z,1
2023-04-20T01:26:52.666Z,1
2023-04-20T02:44:51.817Z,3
2023-04-20T02:45:51.809Z,3
2023-04-20T02:47:51.838Z,2
2023-04-20T02:49:51.765Z,2
2023-04-20T02:54:51.712Z,2
2023-04-20T02:57:51.690Z,3
2023-04-20T02:59:51.660Z,3
2023-04-20T03:00:51.649Z,3
2023-04-20T03:01:51.706Z,3
2023-04-20T03:02:51.761Z,3
2023-04-20T03:03:51.858Z,3
2023-04-20T03:04:51.719Z,3
2023-04-20T03:05:51.604Z,3
2023-04-20T03:06:51.635Z,3
2023-04-20T03:08:51.557Z,3
2023-04-20T03:12:51.538Z,3
2023-04-20T03:16:51.566Z,3
2023-04-20T03:17:51.495Z,2
2023-04-20T03:18:51.465Z,2
2023-04-20T03:19:51.443Z,2
2023-04-20T03:20:51.432Z,2
2023-04-20T03:21:51.420Z,2
2023-04-20T03:23:51.393Z,2
2023-04-20T03:24:53.477Z,2
2023-04-20T03:25:51.375Z,2
2023-04-20T03:27:51.349Z,2
2023-04-20T03:28:51.349Z,2
2023-04-20T03:30:51.368Z,2
2023-04-20T03:31:51.334Z,2
2023-04-20T03:32:51.346Z,2
2023-04-20T03:34:51.289Z,2
2023-04-20T03:35:51.275Z,3
2023-04-20T03:38:51.245Z,3
2023-04-20T03:40:51.223Z,3
2023-04-20T03:41:51.210Z,3
2023-04-20T03:42:51.198Z,3
2023-04-20T03:45:51.200Z,3
2023-04-20T03:46:51.173Z,3
2023-04-20T03:52:51.085Z,3
2023-04-20T03:53:51.073Z,3
2023-04-20T03:54:51.060Z,3
2023-04-20T03:55:51.048Z,3
2023-04-20T03:56:51.038Z,3
2023-04-20T03:57:51.031Z,3
2023-04-20T03:58:51.033Z,3
2023-04-20T03:59:51.008Z,38.
2023-04-20T04:00:51.007Z,38.
2023-04-20T04:01:51.013Z,37.
2023-04-20T04:02:51.150Z,3
2023-04-20T04:03:51.216Z,3
2023-04-20T04:06:50.935Z,36.
2023-04-20T04:07:50.924Z,34.
2023-04-20T04:08:50.913Z,3
2023-04-20T04:09:50.917Z,35.
2023-04-20T04:11:50.885Z,36.
2023-04-20T04:16:50.882Z,34.
2023-04-20T04:17:50.908Z,33.
2023-04-20T04:18:50.838Z,33.
2023-04-20T04:22:50.771Z,29.
2023-04-20T04:23:50.776Z,23.
2023-04-20T04:25:50.742Z,12.
2023-04-20T04:26:50.740Z,11.
2023-04-20T04:27:50.719Z,11.
2023-04-20T04:28:50.708Z,11.
2023-04-20T04:29:50.702Z,11.
2023-04-20T04:30:50.689Z,1
2023-04-20T04:31:50.764Z,11.
2023-04-20T04:32:50.673Z,10.
2023-04-20T04:33:50.662Z,10.
2023-04-20T04:35:50.667Z,9.
2023-04-20T04:36:50.633Z,8.
2023-04-20T04:38:50.608Z,8.39
2023-04-20T04:40:50.588Z,8.10
2023-04-20T04:41:50.579Z,8.89
2023-04-20T04:43:50.556Z,7.80
2023-04-20T04:44:50.550Z,8.00
2023-04-20T04:45:50.539Z,7.80
2023-04-20T04:46:50.550Z,7.50
2023-04-20T04:48:50.512Z,8.19
2023-04-20T04:50:50.511Z,7.59
2023-04-20T04:51:50.476Z,8.30
2023-04-20T04:53:50.462Z,8.89
2023-04-20T04:54:50.456Z,7.
2023-04-20T04:55:50.439Z,8.10
2023-04-20T04:56:50.430Z,7.80
2023-04-20T04:57:50.422Z,7.
2023-04-20T04:58:50.417Z,8.00
2023-04-20T04:59:50.399Z,7.
2023-04-20T05:00:50.383Z,8.
2023-04-20T05:01:50.412Z,8.00
2023-04-20T05:02:50.501Z,8.10
2023-04-20T05:04:50.458Z,8.89
2023-04-20T05:05:50.334Z,8.10
2023-04-20T05:11:50.272Z,8.00
2023-04-20T05:12:50.256Z,8.80
2023-04-20T05:13:50.250Z,8.30
2023-04-20T05:14:50.235Z,8.50
2023-04-20T05:15:50.270Z,8.60
2023-04-20T05:17:50.253Z,8.69
2023-04-20T05:18:50.197Z,8.60
2023-04-20T05:19:50.187Z,9.
2023-04-20T05:20:50.184Z,8.50
2023-04-20T05:21:50.174Z,8.10
2023-04-20T05:22:50.222Z,8.60
2023-04-20T05:23:50.148Z,8.50
2023-04-20T05:24:50.158Z,8.
2023-04-20T05:25:50.146Z,8.10
2023-04-20T05:26:50.123Z,8.
2023-04-20T05:27:50.108Z,8.39
2023-04-20T05:28:50.095Z,8.69
2023-04-20T05:29:50.084Z,8.50
2023-04-20T05:30:50.223Z,8.19
2023-04-20T05:31:50.086Z,9.19
2023-04-20T05:32:51.803Z,8.80
2023-04-20T05:33:50.045Z,8.80
2023-04-20T05:34:50.064Z,8.80
2023-04-20T05:35:50.029Z,8.80
2023-04-20T05:36:50.016Z,9.10
2023-04-20T05:37:50.011Z,9.19
2023-04-20T05:38:50.027Z,9.30
2023-04-20T05:39:49.989Z,9.80
2023-04-20T05:40:50.650Z,9.69
2023-04-20T05:41:49.956Z,9.10
2023-04-20T05:42:49.951Z,9.50
2023-04-20T05:43:49.943Z,9.39
2023-04-20T05:44:49.929Z,9.69
2023-04-20T05:45:49.949Z,9.
2023-04-20T05:46:49.909Z,9.80
2023-04-20T05:47:49.914Z,9.69
2023-04-20T05:48:49.903Z,9.80
2023-04-20T05:49:49.881Z,10.
2023-04-20T05:50:49.878Z,10.00
2023-04-20T05:51:49.880Z,9.89
2023-04-20T05:52:49.849Z,9.89
2023-04-20T05:53:49.846Z,9.80
2023-04-20T05:54:49.846Z,9.69
2023-04-20T05:55:49.824Z,10.10
2023-04-20T05:56:49.807Z,10.39
2023-04-20T05:57:49.802Z,10.
2023-04-20T05:59:49.779Z,10.39
2023-04-20T06:00:49.776Z,11.39
2023-04-20T06:01:49.755Z,11.10
2023-04-20T06:02:49.892Z,11.10
2023-04-20T06:03:49.879Z,12.10
2023-04-20T06:04:49.844Z,11.19
2023-04-20T06:05:49.714Z,12.00
2023-04-20T06:06:49.704Z,12.00
2023-04-20T06:07:49.696Z,12.89
2023-04-20T06:08:49.689Z,13.
2023-04-20T06:09:49.686Z,12.
2023-04-20T06:10:49.705Z,12.39
2023-04-20T06:11:49.651Z,12.39
2023-04-20T06:12:49.646Z,12.80
2023-04-20T06:13:49.634Z,12.50
2023-04-20T06:14:49.631Z,13.10
2023-04-20T06:15:49.627Z,13.
2023-04-20T06:16:49.603Z,13.
2023-04-20T06:17:49.647Z,13.39
2023-04-20T06:18:49.579Z,14.
2023-04-20T06:19:49.574Z,13.39
2023-04-20T06:20:49.556Z,13.39
2023-04-20T06:21:49.569Z,13.89
2023-04-20T06:22:49.543Z,14.10
2023-04-20T06:23:49.528Z,13.60
2023-04-20T06:24:49.512Z,13.30
2023-04-20T06:25:49.508Z,13.10
2023-04-20T06:26:49.915Z,12.
2023-04-20T06:27:51.264Z,13.69
2023-04-20T06:28:49.483Z,12.60
2023-04-20T06:29:49.465Z,12.60
2023-04-20T06:30:49.537Z,12.69
2023-04-20T06:31:49.485Z,12.00
2023-04-20T06:32:49.483Z,12.39
2023-04-20T06:33:49.444Z,12.00
2023-04-20T06:34:49.407Z,11.89
2023-04-20T06:35:49.409Z,12.10
2023-04-20T06:36:49.398Z,12.00
2023-04-20T06:37:49.373Z,12.19
2023-04-20T06:38:49.370Z,12.50
2023-04-20T06:39:49.350Z,12.89
2023-04-20T06:40:49.347Z,12.60
2023-04-20T06:41:49.345Z,12.69
2023-04-20T06:42:49.400Z,13.60
2023-04-20T06:43:49.318Z,13.69
2023-04-20T06:44:49.307Z,13.30
2023-04-20T06:45:49.296Z,13.
2023-04-20T06:46:49.322Z,13.60
2023-04-20T06:47:49.339Z,14.50
2023-04-20T06:48:49.260Z,12.
2023-04-20T06:49:49.248Z,12.60
2023-04-20T06:51:49.217Z,12.30
2023-04-20T06:52:49.231Z,11.60
2023-04-20T06:53:49.206Z,12.10
2023-04-20T06:55:49.178Z,10.00
2023-04-20T06:56:49.171Z,9.
2023-04-20T06:57:49.158Z,9.00
2023-04-20T06:58:49.285Z,9.
2023-04-20T07:00:49.124Z,10.39
2023-04-20T07:02:49.205Z,11.19
2023-04-20T07:03:49.296Z,11.69
2023-04-20T07:05:49.081Z,12.00
2023-04-20T07:07:49.061Z,11.89
2023-04-20T07:08:49.054Z,13.10
2023-04-20T07:09:49.036Z,12.50
2023-04-20T07:10:49.019Z,12.
2023-04-20T07:11:49.015Z,12.00
2023-04-20T07:12:49.001Z,13.00
2023-04-20T07:13:48.990Z,12.00
2023-04-20T07:14:49.066Z,11.60
2023-04-20T07:15:48.966Z,11.30
2023-04-20T07:16:49.016Z,11.50
2023-04-20T07:17:49.015Z,11.00
2023-04-20T07:18:48.931Z,11.
2023-04-20T07:19:48.918Z,11.60
2023-04-20T07:20:48.909Z,12.39
2023-04-20T07:21:48.910Z,12.50
2023-04-20T07:22:48.898Z,12.89
2023-04-20T07:23:48.882Z,12.50
2023-04-20T07:24:48.862Z,12.80
2023-04-20T07:25:48.854Z,12.89
2023-04-20T07:26:48.848Z,13.10
2023-04-20T07:27:48.838Z,13.00
2023-04-20T07:28:48.836Z,12.69
2023-04-20T07:29:48.816Z,13.50
2023-04-20T07:30:49.080Z,13.30
2023-04-20T07:31:48.819Z,13.89
2023-04-20T07:32:48.800Z,13.39
2023-04-20T07:33:48.788Z,13.89
2023-04-20T07:34:48.762Z,13.69
2023-04-20T07:35:48.756Z,13.39
2023-04-20T07:36:48.750Z,13.50
2023-04-20T07:37:48.726Z,13.30
2023-04-20T07:38:48.720Z,13.80
2023-04-20T07:39:48.714Z,13.89
2023-04-20T07:40:48.697Z,14.39
2023-04-20T07:41:48.917Z,13.60
2023-04-20T07:42:48.676Z,14.39
2023-04-20T07:43:48.664Z,14.60
2023-04-20T07:46:48.681Z,14.60
2023-04-20T07:47:48.666Z,13.80
2023-04-20T07:48:48.612Z,14.39
2023-04-20T07:49:48.599Z,14.60
2023-04-20T07:50:48.592Z,14.60
2023-04-20T07:51:48.583Z,14.80
2023-04-20T07:52:48.571Z,14.50
2023-04-20T07:53:48.616Z,14.80
2023-04-20T07:54:48.570Z,14.89
2023-04-20T07:55:50.675Z,15.10
2023-04-20T07:56:48.583Z,15.
2023-04-20T07:57:48.583Z,15.30
2023-04-20T07:58:48.566Z,15.00
2023-04-20T07:59:48.855Z,15.60
2023-04-20T08:00:48.607Z,15.80
2023-04-20T08:01:48.478Z,15.69
2023-04-20T08:02:48.660Z,15.
2023-04-20T08:03:48.759Z,16.10
2023-04-20T08:04:48.630Z,16.89
2023-04-20T08:05:48.496Z,16.29
2023-04-20T08:06:48.425Z,16.
2023-04-20T08:07:48.558Z,16.50
2023-04-20T08:08:48.404Z,15.50
2023-04-20T08:09:48.394Z,15.10
2023-04-20T08:10:48.387Z,15.89
2023-04-20T08:11:48.372Z,16.39
2023-04-20T08:12:49.821Z,16.00
2023-04-20T08:14:48.343Z,16.79
2023-04-20T08:17:48.371Z,16.50
2023-04-20T08:18:48.397Z,16.60
2023-04-20T08:19:48.289Z,16.70
2023-04-20T08:20:48.274Z,16.29
2023-04-20T08:21:48.267Z,15.19
2023-04-20T08:22:48.257Z,14.30
2023-04-20T08:23:48.247Z,14.69
2023-04-20T08:25:48.225Z,14.19
2023-04-20T08:26:48.219Z,15.00
2023-04-20T08:27:48.202Z,14.69
2023-04-20T08:28:48.192Z,14.39
2023-04-20T08:29:48.182Z,13.80
2023-04-20T08:30:48.172Z,14.10
2023-04-20T08:31:50.658Z,14.00
2023-04-20T08:32:48.184Z,14.80
2023-04-20T08:35:48.123Z,14.10
2023-04-20T08:36:48.111Z,13.
2023-04-20T08:38:48.095Z,13.30
2023-04-20T08:39:48.086Z,13.
2023-04-20T08:40:48.068Z,12.69
2023-04-20T08:41:48.134Z,12.89
2023-04-20T08:42:48.051Z,12.30
2023-04-20T08:43:48.038Z,11.89
2023-04-20T08:44:48.030Z,11.89
2023-04-20T08:45:48.031Z,12.19
2023-04-20T08:46:48.056Z,12.80
2023-04-20T08:47:48.064Z,12.80
2023-04-20T08:48:47.985Z,12.60
2023-04-20T08:49:47.978Z,13.
2023-04-20T08:50:47.994Z,12.50
2023-04-20T08:51:48.007Z,12.30
2023-04-20T08:52:47.948Z,12.10
2023-04-20T08:53:47.965Z,12.19
2023-04-20T08:55:48.965Z,13.39
2023-04-20T08:56:47.915Z,12.50
2023-04-20T08:58:47.957Z,12.19
2023-04-20T08:59:47.877Z,12.69
2023-04-20T09:00:47.865Z,12.39
2023-04-20T09:03:47.950Z,12.60
2023-04-20T09:04:47.985Z,13.30
2023-04-20T09:05:47.810Z,13.10
2023-04-20T09:06:48.073Z,12.50
2023-04-20T09:07:47.808Z,12.10
2023-04-20T09:08:47.780Z,12.50
2023-04-20T09:09:47.765Z,12.30
2023-04-20T09:10:47.754Z,12.00
2023-04-20T09:11:47.778Z,12.60
2023-04-20T09:12:47.742Z,12.10
2023-04-20T09:13:47.729Z,12.30
2023-04-20T09:14:47.716Z,13.00
2023-04-20T09:15:47.694Z,12.10
2023-04-20T09:16:47.773Z,12.00
2023-04-20T09:17:47.758Z,12.10
2023-04-20T09:18:47.665Z,11.39
2023-04-20T09:19:47.684Z,11.69
2023-04-20T09:20:47.649Z,11.50
2023-04-20T09:21:47.634Z,11.50
2023-04-20T09:22:47.650Z,11.19
2023-04-20T09:23:47.613Z,11.10
2023-04-20T09:24:47.606Z,11.10
2023-04-20T09:25:47.616Z,10.60
2023-04-20T09:26:47.579Z,10.80
2023-04-20T09:27:47.572Z,10.39
2023-04-20T09:28:47.561Z,10.30
2023-04-20T09:29:47.550Z,10.39
2023-04-20T09:30:47.542Z,10.10
2023-04-20T09:31:47.567Z,10.10
2023-04-20T09:32:47.617Z,11.00
2023-04-20T09:33:47.533Z,9.89
2023-04-20T09:34:47.498Z,8.80
2023-04-20T09:35:47.485Z,8.80
2023-04-20T09:36:47.489Z,8.50
2023-04-20T09:37:47.465Z,9.39
2023-04-20T09:38:47.485Z,8.69
2023-04-20T09:39:47.445Z,8.69
2023-04-20T09:40:47.436Z,9.10
2023-04-20T09:41:47.428Z,9.50
2023-04-20T09:42:47.414Z,9.19
2023-04-20T09:43:47.400Z,9.50
2023-04-20T09:44:47.392Z,9.89
2023-04-20T09:45:47.412Z,9.00
2023-04-20T09:46:47.388Z,9.60
2023-04-20T09:47:47.411Z,9.69
2023-04-20T09:48:47.348Z,9.89
2023-04-20T09:49:47.342Z,10.10
2023-04-20T09:50:49.624Z,10.00
2023-04-20T09:51:47.321Z,10.39
2023-04-20T09:52:47.308Z,10.50
2023-04-20T09:54:47.326Z,10.39
2023-04-20T09:55:47.297Z,10.19
2023-04-20T09:56:47.267Z,10.60
2023-04-20T09:57:47.259Z,10.50
2023-04-20T09:59:47.254Z,11.10
2023-04-20T10:00:47.334Z,11.69
2023-04-20T10:01:47.343Z,11.19
2023-04-20T10:03:47.386Z,11.50
2023-04-20T10:04:47.281Z,11.80
2023-04-20T10:05:47.188Z,12.00
2023-04-20T10:06:47.161Z,12.60
2023-04-20T10:07:47.150Z,13.19
2023-04-20T10:08:47.138Z,13.80
2023-04-20T10:09:47.134Z,14.50
2023-04-20T10:10:47.180Z,15.19
2023-04-20T10:11:53.265Z,16.79
2023-04-20T10:12:48.121Z,18.20
2023-04-20T10:13:47.087Z,17.50
2023-04-20T10:14:47.078Z,17.79
2023-04-20T10:15:47.070Z,18.70
2023-04-20T10:16:47.076Z,18.
2023-04-20T10:17:47.115Z,16.79
2023-04-20T10:19:47.028Z,15.30
2023-04-20T10:20:47.014Z,15.
2023-04-20T10:21:47.001Z,13.89
2023-04-20T10:22:46.996Z,15.19
2023-04-20T10:23:46.981Z,14.80
2023-04-20T10:25:46.961Z,12.89
2023-04-20T10:26:46.980Z,13.39
2023-04-20T10:27:46.942Z,14.60
2023-04-20T10:28:46.941Z,13.69
2023-04-20T10:29:46.927Z,13.30
2023-04-20T10:31:46.897Z,10.00
2023-04-20T10:32:46.961Z,10.50
2023-04-20T10:33:46.873Z,9.50
2023-04-20T10:34:46.871Z,9.39
2023-04-20T10:35:46.864Z,9.69
2023-04-20T10:38:46.826Z,8.19
2023-04-20T10:39:46.879Z,7.90
2023-04-20T10:40:46.808Z,8.10
2023-04-20T10:41:46.796Z,9.19
2023-04-20T10:42:46.842Z,8.69
2023-04-20T10:43:46.772Z,9.10
2023-04-20T10:44:46.762Z,10.19
2023-04-20T10:45:46.751Z,10.10
2023-04-20T10:46:46.803Z,9.
2023-04-20T10:47:46.809Z,9.00
2023-04-20T10:48:46.723Z,9.10
2023-04-20T10:49:46.708Z,7.
2023-04-20T10:51:46.688Z,8.00
2023-04-20T10:52:46.702Z,12.
2023-04-20T10:53:46.686Z,11.19
2023-04-20T10:54:46.663Z,17.60
2023-04-20T10:55:46.644Z,17.79
2023-04-20T10:56:46.638Z,18.70
2023-04-20T10:57:46.629Z,16.
2023-04-20T10:58:46.638Z,13.00
2023-04-20T10:59:46.615Z,8.60
2023-04-20T11:00:46.595Z,8.19
2023-04-20T11:01:46.976Z,16.29
2023-04-20T11:02:46.762Z,18.10
2023-04-20T11:04:46.585Z,23.50
2023-04-20T11:05:46.536Z,24.10
2023-04-20T11:06:46.532Z,25.89
2023-04-20T11:07:46.536Z,25.89
2023-04-20T11:08:46.513Z,29.60
2023-04-20T11:10:46.483Z,29.89
2023-04-20T11:11:46.473Z,30.20
2023-04-20T11:12:46.462Z,26.29
2023-04-20T11:13:46.450Z,40.20
2023-04-20T11:14:46.618Z,33.
2023-04-20T11:15:46.436Z,47.70
2023-04-20T11:16:51.535Z,34.59
2023-04-20T11:18:46.404Z,29.
2023-04-20T11:19:46.406Z,28.00
2023-04-20T11:20:46.377Z,29.50
2023-04-20T11:21:46.366Z,31.89
2023-04-20T11:23:46.347Z,34.09
2023-04-20T11:24:46.338Z,34.20
2023-04-20T11:25:46.327Z,35.09
2023-04-20T11:26:46.313Z,33.00
2023-04-20T11:28:46.291Z,39.29
2023-04-20T11:29:46.289Z,39.50
2023-04-20T11:30:46.313Z,37.40
2023-04-20T11:31:46.374Z,39.20
2023-04-20T11:32:46.368Z,31.
2023-04-20T11:33:46.288Z,25.50
2023-04-20T11:35:46.230Z,29.60
2023-04-20T11:36:46.216Z,31.
2023-04-20T11:37:46.200Z,31.50
2023-04-20T11:39:46.181Z,33.79
2023-04-20T11:40:46.172Z,34.
2023-04-20T11:41:46.157Z,33.50
